Time;durP1;ratioP1;P1;durP2;ratioP2;P2;SDS_P1;SDS_P2;PMS_P1;PMS_P2;Temp;Humidity;BMP_temperature;BMP_pressure;BME280_temperature;BME280_humidity;BME280_pressure;Samples;Min_cycle;Max_cycle;Signal;HPM_P1;HPM_P2
2021/10/17 00:01:28;;;;;;;0.10;0.10;;;;;;;;;;5013931;28;20563;-68
2021/10/17 00:03:54;;;;;;;0.10;0.10;;;;;;;;;;5029659;28;20253;-70
2021/10/17 00:06:27;;;;;;;0.10;0.10;;;;;;;;;;5023306;28;20347;-69
2021/10/17 00:08:53;;;;;;;0.10;0.10;;;;;;;;;;5026383;28;20197;-71
2021/10/17 00:11:19;;;;;;;0.10;0.10;;;;;;;;;;5019527;28;20256;-70
2021/10/17 00:13:48;;;;;;;0.10;0.10;;;;;;;;;;5011905;28;20267;-70
2021/10/17 00:16:16;;;;;;;0.10;0.10;;;;;;;;;;5022726;28;20233;-70
2021/10/17 00:18:42;;;;;;;0.10;0.10;;;;;;;;;;5021843;28;20490;-70
2021/10/17 00:21:08;;;;;;;0.10;0.10;;;;;;;;;;5011817;28;20239;-70
2021/10/17 00:23:35;;;;;;;0.10;0.10;;;;;;;;;;5014869;28;20216;-71
2021/10/17 00:26:01;;;;;;;0.10;0.10;;;;;;;;;;5015205;28;20240;-71
2021/10/17 00:28:27;;;;;;;0.10;0.10;;;;;;;;;;5018426;28;20224;-70
2021/10/17 00:30:53;;;;;;;0.10;0.10;;;;;;;;;;5024094;28;20245;-71
2021/10/17 00:33:21;;;;;;;0.10;0.10;;;;;;;;;;5014724;28;20449;-71
2021/10/17 00:35:47;;;;;;;0.10;0.10;;;;;;;;;;5009849;28;20236;-71
2021/10/17 00:38:13;;;;;;;0.10;0.10;;;;;;;;;;5013443;28;20267;-71
2021/10/17 00:40:40;;;;;;;0.10;0.10;;;;;;;;;;5006359;28;20209;-71
2021/10/17 00:43:06;;;;;;;0.10;0.10;;;;;;;;;;5006875;28;20218;-72
2021/10/17 00:45:32;;;;;;;0.10;0.10;;;;;;;;;;5013493;28;20204;-70
2021/10/17 00:47:59;;;;;;;0.10;0.10;;;;;;;;;;5013382;28;20468;-70
2021/10/17 00:50:27;;;;;;;0.10;0.10;;;;;;;;;;5009476;28;20208;-71
2021/10/17 00:52:53;;;;;;;0.10;0.10;;;;;;;;;;5013211;28;20267;-70
2021/10/17 00:55:22;;;;;;;0.10;0.10;;;;;;;;;;5019710;28;20214;-70
2021/10/17 00:57:48;;;;;;;0.10;0.10;;;;;;;;;;5024756;28;20248;-70
2021/10/17 01:00:15;;;;;;;0.10;0.10;;;;;;;;;;5028080;28;20208;-70
2021/10/17 01:02:41;;;;;;;0.10;0.10;;;;;;;;;;5018965;28;20534;-69
2021/10/17 01:05:12;;;;;;;0.10;0.10;;;;;;;;;;5020180;28;20231;-69
2021/10/17 01:07:39;;;;;;;0.10;0.10;;;;;;;;;;5006755;28;20195;-70
2021/10/17 01:10:06;;;;;;;0.10;0.10;;;;;;;;;;5036353;28;20219;-68
2021/10/17 01:12:32;;;;;;;0.10;0.10;;;;;;;;;;5019309;28;20396;-70
2021/10/17 01:14:58;;;;;;;0.10;0.10;;;;;;;;;;5013629;28;20243;-71
2021/10/17 01:17:24;;;;;;;0.10;0.10;;;;;;;;;;5015582;28;20228;-70
2021/10/17 01:19:52;;;;;;;0.10;0.10;;;;;;;;;;5006779;28;20302;-70
2021/10/17 01:22:19;;;;;;;0.10;0.10;;;;;;;;;;5028173;28;20284;-70
2021/10/17 01:24:45;;;;;;;0.10;0.10;;;;;;;;;;5023726;28;20205;-70
2021/10/17 01:27:11;;;;;;;0.10;0.10;;;;;;;;;;5019198;28;20225;-71
2021/10/17 01:29:38;;;;;;;0.10;0.10;;;;;;;;;;5023523;28;20255;-70
2021/10/17 01:32:04;;;;;;;0.10;0.10;;;;;;;;;;5013814;28;20208;-71
2021/10/17 01:34:33;;;;;;;0.10;0.10;;;;;;;;;;5022002;28;20524;-70
2021/10/17 01:37:00;;;;;;;0.10;0.10;;;;;;;;;;5028685;28;20232;-71
2021/10/17 01:39:27;;;;;;;0.10;0.10;;;;;;;;;;5010376;28;20206;-70
2021/10/17 01:41:53;;;;;;;0.10;0.10;;;;;;;;;;5009747;28;20224;-70
2021/10/17 01:44:24;;;;;;;0.10;0.10;;;;;;;;;;5027463;28;20510;-71
2021/10/17 01:46:50;;;;;;;0.10;0.10;;;;;;;;;;5009380;28;20195;-71
2021/10/17 01:49:16;;;;;;;0.10;0.10;;;;;;;;;;5006818;28;20276;-69
2021/10/17 01:51:43;;;;;;;0.10;0.10;;;;;;;;;;5003888;28;20532;-71
2021/10/17 01:54:10;;;;;;;0.10;0.10;;;;;;;;;;5012267;28;20208;-71
2021/10/17 01:56:37;;;;;;;0.10;0.10;;;;;;;;;;5003464;28;20232;-72
2021/10/17 01:59:03;;;;;;;0.10;0.10;;;;;;;;;;5003792;28;20212;-72
2021/10/17 02:01:29;;;;;;;0.10;0.10;;;;;;;;;;5003740;28;20209;-71
2021/10/17 02:03:56;;;;;;;0.10;0.10;;;;;;;;;;5003488;28;20274;-71
2021/10/17 02:06:22;;;;;;;0.10;0.10;;;;;;;;;;5003471;28;20264;-70
2021/10/17 02:08:48;;;;;;;0.10;0.10;;;;;;;;;;5017607;28;20213;-70
2021/10/17 02:11:16;;;;;;;0.10;0.10;;;;;;;;;;5023292;28;20259;-70
2021/10/17 02:13:42;;;;;;;0.17;0.17;;;;;;;;;;5039222;28;20258;-71
2021/10/17 02:16:08;;;;;;;0.10;0.10;;;;;;;;;;5043049;28;20260;-71
2021/10/17 02:18:35;;;;;;;0.10;0.10;;;;;;;;;;5042531;28;20225;-70
2021/10/17 02:21:01;;;;;;;0.10;0.10;;;;;;;;;;5036688;28;20204;-71
2021/10/17 02:23:27;;;;;;;0.10;0.10;;;;;;;;;;5030222;28;20262;-70
2021/10/17 02:25:54;;;;;;;0.10;0.10;;;;;;;;;;5003503;28;20454;-71
2021/10/17 02:28:21;;;;;;;0.10;0.10;;;;;;;;;;5016749;28;20215;-70
2021/10/17 02:30:47;;;;;;;0.10;0.10;;;;;;;;;;5003418;28;20496;-71
2021/10/17 02:33:14;;;;;;;1.03;1.03;;;;;;;;;;5003078;28;20250;-71
2021/10/17 02:35:40;;;;;;;0.10;0.10;;;;;;;;;;5017146;28;20260;-70
2021/10/17 02:38:06;;;;;;;0.10;0.10;;;;;;;;;;5003410;28;20386;-71
2021/10/17 02:40:32;;;;;;;0.10;0.10;;;;;;;;;;5003172;28;20201;-71
2021/10/17 02:42:58;;;;;;;0.10;0.10;;;;;;;;;;5003295;28;20414;-71
2021/10/17 02:45:26;;;;;;;0.10;0.10;;;;;;;;;;5003388;28;20209;-71
2021/10/17 02:47:53;;;;;;;1.13;1.13;;;;;;;;;;5003352;28;20273;-71
2021/10/17 02:50:19;;;;;;;0.10;0.10;;;;;;;;;;5003277;28;20209;-71
2021/10/17 02:52:45;;;;;;;0.10;0.10;;;;;;;;;;5003107;28;20255;-71
2021/10/17 02:55:12;;;;;;;0.10;0.10;;;;;;;;;;5003178;28;20207;-71
2021/10/17 02:57:38;;;;;;;0.10;0.10;;;;;;;;;;5002890;28;20224;-71
2021/10/17 03:00:04;;;;;;;0.10;0.10;;;;;;;;;;5002900;28;20209;-71
2021/10/17 03:02:32;;;;;;;0.10;0.10;;;;;;;;;;5003139;28;20209;-71
2021/10/17 03:04:58;;;;;;;0.10;0.10;;;;;;;;;;5003032;28;20274;-70
2021/10/17 03:07:24;;;;;;;0.10;0.10;;;;;;;;;;5005645;28;20399;-71
2021/10/17 03:09:50;;;;;;;0.10;0.10;;;;;;;;;;5006929;28;20225;-70
2021/10/17 03:12:17;;;;;;;0.10;0.10;;;;;;;;;;5007072;28;20210;-70
2021/10/17 03:14:43;;;;;;;0.10;0.10;;;;;;;;;;5006677;28;20216;-71
2021/10/17 03:17:09;;;;;;;0.10;0.10;;;;;;;;;;5006799;28;20232;-72
2021/10/17 03:19:37;;;;;;;0.10;0.10;;;;;;;;;;5006866;28;20223;-72
2021/10/17 03:22:03;;;;;;;0.10;0.10;;;;;;;;;;5014327;28;20215;-71
2021/10/17 03:24:29;;;;;;;0.10;0.10;;;;;;;;;;5012061;28;20214;-69
2021/10/17 03:26:55;;;;;;;0.10;0.10;;;;;;;;;;5012422;28;20215;-70
2021/10/17 03:29:22;;;;;;;0.10;0.10;;;;;;;;;;5014005;28;20221;-72
2021/10/17 03:31:49;;;;;;;0.10;0.10;;;;;;;;;;5010600;28;20249;-70
2021/10/17 03:34:15;;;;;;;0.10;0.10;;;;;;;;;;5025754;28;20208;-71
2021/10/17 03:36:43;;;;;;;0.10;0.10;;;;;;;;;;5009645;28;20208;-71
2021/10/17 03:39:09;;;;;;;0.10;0.10;;;;;;;;;;5006034;28;20261;-72
2021/10/17 03:41:35;;;;;;;0.10;0.10;;;;;;;;;;5006353;28;20512;-71
2021/10/17 03:44:01;;;;;;;0.10;0.10;;;;;;;;;;5012644;28;20208;-71
2021/10/17 03:46:28;;;;;;;0.10;0.10;;;;;;;;;;5013247;28;20427;-71
2021/10/17 03:48:54;;;;;;;0.10;0.10;;;;;;;;;;5006002;28;20545;-71
2021/10/17 03:51:20;;;;;;;0.10;0.10;;;;;;;;;;5005610;28;20223;-72
2021/10/17 03:53:48;;;;;;;0.10;0.10;;;;;;;;;;5005825;28;20251;-71
2021/10/17 03:56:14;;;;;;;0.10;0.10;;;;;;;;;;5006090;28;20263;-71
2021/10/17 03:58:40;;;;;;;0.10;0.10;;;;;;;;;;5005638;28;20464;-70
2021/10/17 04:01:06;;;;;;;0.10;0.10;;;;;;;;;;5005374;28;20435;-70
2021/10/17 04:03:32;;;;;;;0.10;0.10;;;;;;;;;;5005282;28;20213;-71
2021/10/17 04:05:59;;;;;;;0.10;0.10;;;;;;;;;;5005673;28;20208;-70
2021/10/17 04:08:25;;;;;;;0.10;0.10;;;;;;;;;;5005882;28;20495;-72
2021/10/17 04:10:53;;;;;;;0.10;0.10;;;;;;;;;;5005849;28;20250;-70
2021/10/17 04:13:19;;;;;;;0.10;0.10;;;;;;;;;;5005403;28;20254;-71
2021/10/17 04:15:45;;;;;;;0.10;0.10;;;;;;;;;;5010915;28;20206;-72
2021/10/17 04:18:11;;;;;;;0.10;0.10;;;;;;;;;;5006362;28;20225;-70
2021/10/17 04:20:37;;;;;;;0.10;0.10;;;;;;;;;;5005493;28;20209;-71
2021/10/17 04:23:06;;;;;;;0.10;0.10;;;;;;;;;;5005238;28;20216;-70
2021/10/17 04:25:32;;;;;;;0.10;0.10;;;;;;;;;;5005478;28;20468;-70
2021/10/17 04:27:59;;;;;;;0.10;0.10;;;;;;;;;;5005352;28;20205;-70
2021/10/17 04:30:26;;;;;;;0.10;0.10;;;;;;;;;;5005630;28;20263;-70
2021/10/17 04:32:52;;;;;;;0.10;0.10;;;;;;;;;;5005264;28;20208;-71
2021/10/17 04:35:18;;;;;;;0.10;0.10;;;;;;;;;;5005029;28;20235;-70
2021/10/17 04:37:44;;;;;;;0.13;0.13;;;;;;;;;;5005283;28;20347;-70
2021/10/17 04:40:11;;;;;;;0.10;0.10;;;;;;;;;;5005217;28;20202;-70
2021/10/17 04:42:37;;;;;;;0.10;0.10;;;;;;;;;;5005024;28;20208;-70
2021/10/17 04:45:06;;;;;;;0.10;0.10;;;;;;;;;;5005170;28;20211;-71
2021/10/17 04:47:32;;;;;;;0.10;0.10;;;;;;;;;;5004936;28;20260;-72
2021/10/17 04:49:58;;;;;;;0.10;0.10;;;;;;;;;;5004899;28;20209;-71
2021/10/17 04:52:24;;;;;;;0.13;0.13;;;;;;;;;;5004995;28;20208;-71
2021/10/17 04:54:51;;;;;;;0.10;0.10;;;;;;;;;;5004815;28;20267;-71
2021/10/17 04:57:17;;;;;;;0.10;0.10;;;;;;;;;;5008411;28;20206;-68
2021/10/17 04:59:43;;;;;;;0.27;0.27;;;;;;;;;;5005115;28;20204;-71
2021/10/17 05:02:11;;;;;;;0.10;0.10;;;;;;;;;;5005082;28;20496;-70
2021/10/17 05:04:37;;;;;;;0.10;0.10;;;;;;;;;;5009176;28;20226;-71
2021/10/17 05:07:04;;;;;;;0.63;0.63;;;;;;;;;;5014096;28;20494;-71
2021/10/17 05:09:30;;;;;;;0.10;0.10;;;;;;;;;;5004691;28;20204;-70
2021/10/17 05:11:56;;;;;;;0.10;0.10;;;;;;;;;;5007153;28;20205;-72
2021/10/17 05:14:22;;;;;;;0.10;0.10;;;;;;;;;;5004637;28;20207;-70
2021/10/17 05:16:48;;;;;;;0.10;0.10;;;;;;;;;;5004296;28;20208;-70
2021/10/17 05:19:16;;;;;;;0.10;0.10;;;;;;;;;;5004664;28;20235;-71
2021/10/17 05:21:43;;;;;;;0.10;0.10;;;;;;;;;;5004192;28;20314;-71
2021/10/17 05:24:10;;;;;;;0.10;0.10;;;;;;;;;;5004258;28;20207;-72
2021/10/17 05:26:36;;;;;;;0.17;0.17;;;;;;;;;;5004021;28;20203;-71
2021/10/17 05:29:02;;;;;;;0.10;0.10;;;;;;;;;;5013058;28;20268;-70
2021/10/17 05:31:28;;;;;;;0.10;0.10;;;;;;;;;;5007581;28;20252;-71
2021/10/17 05:33:55;;;;;;;0.10;0.10;;;;;;;;;;5004395;28;20203;-72
2021/10/17 05:36:22;;;;;;;0.10;0.10;;;;;;;;;;5017907;28;20206;-71
2021/10/17 05:38:48;;;;;;;0.10;0.10;;;;;;;;;;5004098;28;20228;-72
2021/10/17 05:41:15;;;;;;;0.10;0.10;;;;;;;;;;5004248;28;20290;-70
2021/10/17 05:43:41;;;;;;;0.10;0.10;;;;;;;;;;5003811;28;20208;-70
2021/10/17 05:46:07;;;;;;;0.10;0.10;;;;;;;;;;5004149;28;20213;-70
2021/10/17 05:48:33;;;;;;;0.10;0.10;;;;;;;;;;5006026;28;20248;-71
2021/10/17 05:50:59;;;;;;;0.10;0.10;;;;;;;;;;5015368;28;20235;-71
2021/10/17 05:53:27;;;;;;;0.20;0.20;;;;;;;;;;5003643;28;20206;-70
2021/10/17 05:55:53;;;;;;;0.10;0.10;;;;;;;;;;5003591;28;20229;-71
2021/10/17 05:58:19;;;;;;;0.20;0.20;;;;;;;;;;5012559;28;20287;-70
2021/10/17 06:00:46;;;;;;;0.10;0.10;;;;;;;;;;5008879;28;20399;-71
2021/10/17 06:03:12;;;;;;;0.10;0.10;;;;;;;;;;5003625;28;20498;-70
2021/10/17 06:05:38;;;;;;;0.10;0.10;;;;;;;;;;5003797;28;20277;-72
2021/10/17 06:08:04;;;;;;;0.10;0.10;;;;;;;;;;5003693;28;20376;-71
2021/10/17 06:10:32;;;;;;;0.10;0.10;;;;;;;;;;5003534;28;20207;-71
2021/10/17 06:12:58;;;;;;;0.10;0.10;;;;;;;;;;5003578;28;20249;-71
2021/10/17 06:15:24;;;;;;;0.10;0.10;;;;;;;;;;5012601;28;20207;-71
2021/10/17 06:17:51;;;;;;;0.10;0.10;;;;;;;;;;5007835;28;20520;-71
2021/10/17 06:20:17;;;;;;;0.10;0.10;;;;;;;;;;5003381;28;20215;-71
2021/10/17 06:22:43;;;;;;;0.20;0.20;;;;;;;;;;5003418;28;20391;-71
2021/10/17 06:25:11;;;;;;;0.10;0.10;;;;;;;;;;5003334;28;20257;-71
2021/10/17 06:27:38;;;;;;;0.10;0.10;;;;;;;;;;5003313;28;20207;-71
2021/10/17 06:30:05;;;;;;;0.10;0.10;;;;;;;;;;5003014;28;20218;-72
2021/10/17 06:32:31;;;;;;;0.10;0.10;;;;;;;;;;5003147;28;20261;-72
2021/10/17 06:34:57;;;;;;;0.10;0.10;;;;;;;;;;5003037;28;20341;-71
2021/10/17 06:37:23;;;;;;;0.10;0.10;;;;;;;;;;5003379;28;20426;-71
2021/10/17 06:39:50;;;;;;;0.10;0.10;;;;;;;;;;5002897;28;20275;-71
2021/10/17 06:42:16;;;;;;;0.10;0.10;;;;;;;;;;5003094;28;20291;-71
2021/10/17 06:44:43;;;;;;;0.10;0.10;;;;;;;;;;5003342;28;20404;-71
2021/10/17 06:47:10;;;;;;;0.10;0.10;;;;;;;;;;5003268;28;20261;-72
2021/10/17 06:49:37;;;;;;;0.10;0.10;;;;;;;;;;5004435;28;20204;-71
2021/10/17 06:52:03;;;;;;;0.10;0.10;;;;;;;;;;5006120;28;20284;-72
2021/10/17 06:54:29;;;;;;;0.13;0.13;;;;;;;;;;5003357;28;20208;-71
2021/10/17 06:56:56;;;;;;;0.10;0.10;;;;;;;;;;5003053;28;20207;-72
2021/10/17 06:59:22;;;;;;;0.10;0.10;;;;;;;;;;5003334;28;20222;-72
2021/10/17 07:01:49;;;;;;;0.17;0.17;;;;;;;;;;5003191;28;20254;-71
2021/10/17 07:04:16;;;;;;;0.10;0.10;;;;;;;;;;5003220;28;20237;-71
2021/10/17 07:06:42;;;;;;;0.10;0.10;;;;;;;;;;5003351;28;20202;-72
2021/10/17 07:09:08;;;;;;;0.10;0.10;;;;;;;;;;5003289;28;20203;-72
2021/10/17 07:11:34;;;;;;;2.00;1.90;;;;;;;;;;5003195;28;20401;-71
2021/10/17 07:14:01;;;;;;;0.10;0.10;;;;;;;;;;5003246;28;20208;-71
2021/10/17 07:16:27;;;;;;;0.20;0.20;;;;;;;;;;5003055;28;20489;-71
2021/10/17 07:18:54;;;;;;;0.10;0.10;;;;;;;;;;5002818;28;20271;-71
2021/10/17 07:21:20;;;;;;;0.10;0.10;;;;;;;;;;5003154;28;20210;-70
2021/10/17 07:23:47;;;;;;;0.10;0.10;;;;;;;;;;5003201;28;20202;-71
2021/10/17 07:26:13;;;;;;;0.17;0.17;;;;;;;;;;5016770;28;20207;-71
2021/10/17 07:28:40;;;;;;;0.10;0.10;;;;;;;;;;5002960;28;20217;-72
2021/10/17 07:31:06;;;;;;;0.10;0.10;;;;;;;;;;5003068;28;20211;-71
2021/10/17 07:33:32;;;;;;;0.10;0.10;;;;;;;;;;5002965;28;20204;-70
2021/10/17 07:36:00;;;;;;;0.10;0.10;;;;;;;;;;5002847;28;20203;-71
2021/10/17 07:38:26;;;;;;;0.10;0.10;;;;;;;;;;5002870;28;20649;-71
2021/10/17 07:40:52;;;;;;;0.10;0.10;;;;;;;;;;5007695;28;20204;-72
2021/10/17 07:43:18;;;;;;;0.10;0.10;;;;;;;;;;5002997;28;20233;-72
2021/10/17 07:45:44;;;;;;;0.10;0.10;;;;;;;;;;5003134;28;20229;-72
2021/10/17 07:48:11;;;;;;;0.10;0.10;;;;;;;;;;5002737;28;20252;-72
2021/10/17 07:50:37;;;;;;;0.10;0.10;;;;;;;;;;5002886;28;20202;-71
2021/10/17 07:53:05;;;;;;;0.10;0.10;;;;;;;;;;5003550;28;20297;-71
2021/10/17 07:55:32;;;;;;;0.10;0.10;;;;;;;;;;5006304;28;20215;-70
2021/10/17 07:57:58;;;;;;;0.10;0.10;;;;;;;;;;5006161;28;20419;-72
2021/10/17 08:00:25;;;;;;;0.10;0.10;;;;;;;;;;5006184;28;20540;-72
2021/10/17 08:02:51;;;;;;;0.10;0.10;;;;;;;;;;5005944;28;20271;-72
2021/10/17 08:05:18;;;;;;;0.10;0.10;;;;;;;;;;5005962;28;20229;-71
2021/10/17 08:07:44;;;;;;;0.10;0.10;;;;;;;;;;5005621;28;20428;-72
2021/10/17 08:10:12;;;;;;;3.77;3.50;;;;;;;;;;5005757;28;20250;-71
2021/10/17 08:12:39;;;;;;;0.10;0.10;;;;;;;;;;5020121;28;20213;-71
2021/10/17 08:15:07;;;;;;;0.10;0.10;;;;;;;;;;5025370;28;20473;-71
2021/10/17 08:17:33;;;;;;;0.10;0.10;;;;;;;;;;5025208;28;20207;-70
2021/10/17 08:19:59;;;;;;;0.10;0.10;;;;;;;;;;5024569;28;20266;-71
2021/10/17 08:22:26;;;;;;;0.10;0.10;;;;;;;;;;5024819;28;20207;-71
2021/10/17 08:24:52;;;;;;;0.10;0.10;;;;;;;;;;5025069;28;20262;-72
2021/10/17 08:27:20;;;;;;;0.10;0.10;;;;;;;;;;5025211;28;20248;-71
2021/10/17 08:29:46;;;;;;;0.10;0.10;;;;;;;;;;5024717;28;20234;-71
2021/10/17 08:32:13;;;;;;;0.10;0.10;;;;;;;;;;5024781;28;20272;-71
2021/10/17 08:34:39;;;;;;;0.10;0.10;;;;;;;;;;5025177;28;20249;-71
2021/10/17 08:37:06;;;;;;;0.10;0.10;;;;;;;;;;5011310;28;20256;-72
2021/10/17 08:39:32;;;;;;;0.10;0.10;;;;;;;;;;5024863;28;20235;-72
2021/10/17 08:41:58;;;;;;;0.10;0.10;;;;;;;;;;5024810;28;20205;-71
2021/10/17 08:44:26;;;;;;;0.10;0.10;;;;;;;;;;5024687;28;20207;-72
2021/10/17 08:46:52;;;;;;;0.10;0.10;;;;;;;;;;5022079;28;20213;-72
2021/10/17 08:49:19;;;;;;;0.10;0.10;;;;;;;;;;5013142;28;20201;-72
2021/10/17 08:51:45;;;;;;;0.10;0.10;;;;;;;;;;5010959;28;20213;-71
2021/10/17 08:54:12;;;;;;;0.10;0.10;;;;;;;;;;5024708;28;20505;-72
2021/10/17 08:56:38;;;;;;;0.10;0.10;;;;;;;;;;5024423;28;20209;-72
2021/10/17 08:59:04;;;;;;;0.10;0.10;;;;;;;;;;5009832;28;20225;-73
2021/10/17 09:01:34;;;;;;;0.10;0.10;;;;;;;;;;5005188;28;20206;-72
2021/10/17 09:04:00;;;;;;;0.10;0.10;;;;;;;;;;5004519;28;20233;-73
2021/10/17 09:06:28;;;;;;;0.10;0.10;;;;;;;;;;5023242;28;20263;-73
2021/10/17 09:09:03;;;;;;;0.10;0.10;;;;;;;;;;5016660;28;20363;-71
2021/10/17 09:11:35;;;;;;;0.10;0.10;;;;;;;;;;5012257;28;20197;-72
2021/10/17 09:14:02;;;;;;;0.10;0.10;;;;;;;;;;5008565;28;20202;-71
2021/10/17 09:16:29;;;;;;;0.10;0.10;;;;;;;;;;5011931;28;20201;-73
2021/10/17 09:19:06;;;;;;;0.10;0.10;;;;;;;;;;5009329;28;20225;-72
2021/10/17 09:21:33;;;;;;;0.10;0.10;;;;;;;;;;5011499;28;20501;-71
2021/10/17 09:23:59;;;;;;;0.10;0.10;;;;;;;;;;5008602;28;20276;-72
2021/10/17 09:26:25;;;;;;;0.10;0.10;;;;;;;;;;5011842;28;20206;-73
2021/10/17 09:28:51;;;;;;;0.10;0.10;;;;;;;;;;5012387;28;20221;-73
2021/10/17 09:31:18;;;;;;;0.10;0.10;;;;;;;;;;5012750;28;20248;-72
2021/10/17 09:33:46;;;;;;;0.10;0.10;;;;;;;;;;5016280;28;20221;-73
2021/10/17 09:36:21;;;;;;;0.10;0.10;;;;;;;;;;5014905;28;20213;-71
2021/10/17 09:38:50;;;;;;;0.10;0.10;;;;;;;;;;5012918;28;20210;-74
2021/10/17 09:41:17;;;;;;;0.10;0.10;;;;;;;;;;5008400;28;20274;-74
2021/10/17 09:43:49;;;;;;;0.10;0.10;;;;;;;;;;5011364;28;20215;-73
2021/10/17 09:46:16;;;;;;;0.10;0.10;;;;;;;;;;5023301;28;20208;-73
2021/10/17 09:48:43;;;;;;;0.10;0.10;;;;;;;;;;5018980;28;20353;-74
2021/10/17 09:51:10;;;;;;;0.10;0.10;;;;;;;;;;5010511;28;20211;-72
2021/10/17 09:53:44;;;;;;;0.10;0.10;;;;;;;;;;5013860;28;20203;-72
2021/10/17 09:56:22;;;;;;;0.00;0.00;;;;;;;;;;5009037;28;20217;-71
2021/10/17 09:58:48;;;;;;;0.10;0.10;;;;;;;;;;5009504;28;20278;-73
2021/10/17 10:01:14;;;;;;;0.10;0.10;;;;;;;;;;5013452;28;20281;-71
2021/10/17 10:03:41;;;;;;;0.10;0.10;;;;;;;;;;5007119;28;20247;-71
2021/10/17 10:06:07;;;;;;;0.83;0.83;;;;;;;;;;5005843;28;20215;-71
2021/10/17 10:08:34;;;;;;;0.03;0.03;;;;;;;;;;5011748;28;20227;-72
2021/10/17 10:11:01;;;;;;;0.00;0.00;;;;;;;;;;5008290;28;20205;-71
2021/10/17 10:13:28;;;;;;;0.10;0.10;;;;;;;;;;5005849;28;20275;-72
2021/10/17 10:15:54;;;;;;;0.10;0.10;;;;;;;;;;5015819;28;20210;-72
2021/10/17 10:18:22;;;;;;;0.03;0.03;;;;;;;;;;5016834;28;20202;-73
2021/10/17 10:20:48;;;;;;;0.10;0.10;;;;;;;;;;5014973;28;20600;-71
2021/10/17 10:23:14;;;;;;;0.07;0.07;;;;;;;;;;5006362;28;20216;-71
2021/10/17 10:25:41;;;;;;;0.10;0.10;;;;;;;;;;5009841;28;20244;-71
2021/10/17 10:28:13;;;;;;;0.10;0.10;;;;;;;;;;5011646;28;20288;-71
2021/10/17 10:30:39;;;;;;;0.10;0.10;;;;;;;;;;5017757;28;20193;-70
2021/10/17 10:33:14;;;;;;;0.10;0.10;;;;;;;;;;5022444;28;20502;-71
2021/10/17 10:35:59;;;;;;;0.10;0.10;;;;;;;;;;5022659;28;20488;-70
2021/10/17 10:38:40;;;;;;;0.10;0.10;;;;;;;;;;5005994;28;20251;-71
2021/10/17 10:41:14;;;;;;;0.10;0.10;;;;;;;;;;5007490;28;20228;-69
2021/10/17 10:43:41;;;;;;;0.10;0.10;;;;;;;;;;5010904;28;20202;-72
2021/10/17 10:46:08;;;;;;;0.10;0.10;;;;;;;;;;5005860;28;20259;-71
2021/10/17 10:48:44;;;;;;;0.00;0.00;;;;;;;;;;5013544;28;20208;-71
2021/10/17 10:51:11;;;;;;;0.10;0.10;;;;;;;;;;5015942;28;20203;-71
2021/10/17 10:53:48;;;;;;;0.10;0.10;;;;;;;;;;5014000;28;20511;-73
2021/10/17 10:56:33;;;;;;;0.10;0.10;;;;;;;;;;5006831;28;20230;-72
2021/10/17 10:59:01;;;;;;;0.10;0.10;;;;;;;;;;5006242;28;20204;-69
2021/10/17 11:01:42;;;;;;;0.10;0.10;;;;;;;;;;5021596;28;20276;-72
2021/10/17 11:04:08;;;;;;;0.10;0.10;;;;;;;;;;5009649;28;20274;-71
2021/10/17 11:06:34;;;;;;;0.10;0.10;;;;;;;;;;5022576;28;20263;-74
2021/10/17 11:09:18;;;;;;;0.10;0.10;;;;;;;;;;5011614;28;20242;-72
2021/10/17 11:11:45;;;;;;;0.10;0.10;;;;;;;;;;5002646;28;20209;-72
2021/10/17 11:14:15;;;;;;;0.10;0.10;;;;;;;;;;5008616;28;20205;-72
2021/10/17 11:16:42;;;;;;;0.10;0.10;;;;;;;;;;5014502;28;20529;-71
2021/10/17 11:19:09;;;;;;;0.10;0.10;;;;;;;;;;5012033;28;20260;-72
2021/10/17 11:21:35;;;;;;;0.10;0.10;;;;;;;;;;5021323;28;20214;-73
2021/10/17 11:24:01;;;;;;;0.10;0.10;;;;;;;;;;5021969;28;20205;-73
2021/10/17 11:26:27;;;;;;;0.10;0.10;;;;;;;;;;5019010;28;20270;-73
2021/10/17 11:28:54;;;;;;;0.10;0.10;;;;;;;;;;5022391;28;20222;-74
2021/10/17 11:31:23;;;;;;;0.10;0.10;;;;;;;;;;5023874;28;20208;-75
2021/10/17 11:33:49;;;;;;;0.10;0.10;;;;;;;;;;5007076;28;20213;-73
2021/10/17 11:36:17;;;;;;;0.10;0.10;;;;;;;;;;5012628;28;20249;-72
2021/10/17 11:38:44;;;;;;;0.10;0.10;;;;;;;;;;5012520;28;20265;-72
2021/10/17 11:41:11;;;;;;;0.10;0.10;;;;;;;;;;5017318;28;20236;-73
2021/10/17 11:43:39;;;;;;;0.10;0.10;;;;;;;;;;5020954;28;20224;-73
2021/10/17 11:46:06;;;;;;;0.10;0.10;;;;;;;;;;5018042;28;20505;-72
2021/10/17 11:48:37;;;;;;;0.10;0.10;;;;;;;;;;5017360;28;20212;-73
2021/10/17 11:51:05;;;;;;;0.00;0.00;;;;;;;;;;5017642;28;20248;-72
2021/10/17 11:53:31;;;;;;;0.10;0.10;;;;;;;;;;5013877;28;20254;-73
2021/10/17 11:55:57;;;;;;;0.20;0.20;;;;;;;;;;5018663;28;20537;-73
2021/10/17 11:58:25;;;;;;;0.10;0.10;;;;;;;;;;5016968;28;20214;-73
2021/10/17 12:00:53;;;;;;;0.10;0.10;;;;;;;;;;5015336;28;20227;-71
2021/10/17 12:03:20;;;;;;;0.00;0.00;;;;;;;;;;5019672;28;20209;-71
2021/10/17 12:05:48;;;;;;;0.10;0.10;;;;;;;;;;5011003;28;20489;-71
2021/10/17 12:08:17;;;;;;;0.00;0.00;;;;;;;;;;5011292;28;20208;-71
2021/10/17 12:10:44;;;;;;;0.10;0.10;;;;;;;;;;5019687;28;20208;-70
2021/10/17 12:13:11;;;;;;;0.10;0.10;;;;;;;;;;5007789;28;20236;-71
2021/10/17 12:15:40;;;;;;;0.10;0.10;;;;;;;;;;5020338;28;20201;-71
2021/10/17 12:18:06;;;;;;;0.10;0.10;;;;;;;;;;5020770;28;20279;-70
2021/10/17 12:20:33;;;;;;;0.10;0.10;;;;;;;;;;5020638;28;20272;-71
2021/10/17 12:23:01;;;;;;;0.10;0.10;;;;;;;;;;5020424;28;20422;-72
2021/10/17 12:25:28;;;;;;;0.10;0.10;;;;;;;;;;5024577;28;20225;-73
2021/10/17 12:27:54;;;;;;;0.10;0.10;;;;;;;;;;5020591;28;20277;-72
2021/10/17 12:30:21;;;;;;;0.10;0.10;;;;;;;;;;5015851;28;20250;-74
2021/10/17 12:32:49;;;;;;;0.10;0.10;;;;;;;;;;5019952;28;20479;-71
2021/10/17 12:35:26;;;;;;;0.10;0.10;;;;;;;;;;5011746;28;20260;-72
2021/10/17 12:37:53;;;;;;;0.10;0.10;;;;;;;;;;5021168;28;20211;-72
2021/10/17 12:40:21;;;;;;;0.10;0.10;;;;;;;;;;5020470;28;20263;-72
2021/10/17 12:42:50;;;;;;;0.10;0.10;;;;;;;;;;5035026;28;20370;-73
2021/10/17 12:45:16;;;;;;;0.10;0.10;;;;;;;;;;5044163;28;20426;-72
2021/10/17 12:47:49;;;;;;;0.10;0.10;;;;;;;;;;5033626;28;20203;-73
2021/10/17 12:50:16;;;;;;;0.10;0.10;;;;;;;;;;5010932;28;20256;-72
2021/10/17 12:52:53;;;;;;;0.10;0.10;;;;;;;;;;5009472;28;20255;-72
2021/10/17 12:55:20;;;;;;;0.10;0.10;;;;;;;;;;5005445;28;20533;-69
2021/10/17 12:57:59;;;;;;;0.10;0.10;;;;;;;;;;5006545;28;20509;-75
2021/10/17 13:00:26;;;;;;;0.07;0.07;;;;;;;;;;5019999;28;20376;-70
2021/10/17 13:02:52;;;;;;;0.00;0.00;;;;;;;;;;5008435;28;20202;-71
2021/10/17 13:05:18;;;;;;;0.10;0.10;;;;;;;;;;5024017;28;20501;-71
2021/10/17 13:07:45;;;;;;;0.10;0.10;;;;;;;;;;5016535;28;20210;-71
2021/10/17 13:10:12;;;;;;;0.10;0.10;;;;;;;;;;5016901;28;20209;-72
2021/10/17 13:12:43;;;;;;;0.00;0.00;;;;;;;;;;5004233;28;20202;-71
2021/10/17 13:15:11;;;;;;;6.60;6.30;;;;;;;;;;5017190;28;20316;-71
2021/10/17 13:17:38;;;;;;;0.10;0.10;;;;;;;;;;5011509;28;20208;-72
2021/10/17 13:20:05;;;;;;;0.10;0.10;;;;;;;;;;5016558;28;20234;-72
2021/10/17 13:22:32;;;;;;;0.10;0.10;;;;;;;;;;5012975;28;20208;-71
2021/10/17 13:24:58;;;;;;;0.10;0.10;;;;;;;;;;5021495;28;20205;-71
2021/10/17 13:27:24;;;;;;;0.10;0.10;;;;;;;;;;5007701;28;20363;-71
2021/10/17 13:29:55;;;;;;;0.10;0.10;;;;;;;;;;5009435;28;20462;-72
2021/10/17 13:32:25;;;;;;;0.47;0.47;;;;;;;;;;5006348;28;20271;-72
2021/10/17 13:34:51;;;;;;;0.10;0.10;;;;;;;;;;5013119;28;20223;-72
2021/10/17 13:37:18;;;;;;;0.10;0.10;;;;;;;;;;5017347;28;20250;-73
2021/10/17 13:39:44;;;;;;;0.10;0.10;;;;;;;;;;5011706;28;20227;-72
2021/10/17 13:42:10;;;;;;;0.10;0.10;;;;;;;;;;5016552;28;20244;-72
2021/10/17 13:44:36;;;;;;;0.10;0.10;;;;;;;;;;5012308;28;20213;-74
2021/10/17 13:47:04;;;;;;;0.10;0.10;;;;;;;;;;5005670;28;20208;-73
2021/10/17 13:49:30;;;;;;;0.10;0.10;;;;;;;;;;5012375;28;20208;-73
2021/10/17 13:51:57;;;;;;;0.10;0.10;;;;;;;;;;5012296;28;20213;-72
2021/10/17 13:54:23;;;;;;;0.10;0.10;;;;;;;;;;5010642;28;20243;-72
2021/10/17 13:56:51;;;;;;;0.10;0.10;;;;;;;;;;5014599;28;20275;-70
2021/10/17 13:59:18;;;;;;;0.10;0.10;;;;;;;;;;5016889;28;20284;-71
2021/10/17 14:01:44;;;;;;;0.10;0.10;;;;;;;;;;5009660;28;20578;-71
2021/10/17 14:04:11;;;;;;;0.10;0.10;;;;;;;;;;5008170;28;20392;-72
2021/10/17 14:06:38;;;;;;;0.10;0.10;;;;;;;;;;5016883;28;20208;-72
2021/10/17 14:09:04;;;;;;;0.10;0.10;;;;;;;;;;5014268;28;20268;-73
2021/10/17 14:11:30;;;;;;;0.10;0.10;;;;;;;;;;5006220;28;20432;-70
2021/10/17 14:13:56;;;;;;;0.10;0.10;;;;;;;;;;5016774;28;20291;-72
2021/10/17 14:16:23;;;;;;;0.10;0.10;;;;;;;;;;5012043;28;20216;-73
2021/10/17 14:18:49;;;;;;;0.10;0.10;;;;;;;;;;5013764;28;20248;-72
2021/10/17 14:21:17;;;;;;;0.10;0.10;;;;;;;;;;5016350;28;20270;-71
2021/10/17 14:23:44;;;;;;;0.10;0.10;;;;;;;;;;5004673;28;20223;-73
2021/10/17 14:26:10;;;;;;;0.10;0.10;;;;;;;;;;5008240;28;20208;-74
2021/10/17 14:28:36;;;;;;;0.00;0.00;;;;;;;;;;5006887;28;20403;-73
2021/10/17 14:31:03;;;;;;;0.10;0.10;;;;;;;;;;5014534;28;20261;-73
2021/10/17 14:33:29;;;;;;;0.10;0.10;;;;;;;;;;5014110;28;20197;-71
2021/10/17 14:35:55;;;;;;;0.10;0.10;;;;;;;;;;5007302;28;20212;-72
2021/10/17 14:38:23;;;;;;;0.10;0.10;;;;;;;;;;5012805;28;20213;-75
2021/10/17 14:40:49;;;;;;;0.10;0.10;;;;;;;;;;5011582;28;20255;-72
2021/10/17 14:43:16;;;;;;;0.10;0.10;;;;;;;;;;5009496;28;20208;-73